Time;durP1;ratioP1;P1;durP2;ratioP2;P2;SDS_P1;SDS_P2;PMS_P1;PMS_P2;Temp;Humidity;BMP_temperature;BMP_pressure;BME280_temperature;BME280_humidity;BME280_pressure;Samples;Min_cycle;Max_cycle;Signal;HPM_P1;HPM_P2
2021/12/26 00:00:36;;;;;;;1.93;1.83;;;;;;;;;;4995395;28;20481;-88
2021/12/26 00:03:05;;;;;;;2.57;2.37;;;;;;;;;;4995424;28;20484;-88
2021/12/26 00:05:33;;;;;;;2.13;1.93;;;;;;;;;;4995388;28;20487;-88
2021/12/26 00:08:02;;;;;;;2.83;2.50;;;;;;;;;;4994570;28;20448;-88
2021/12/26 00:10:30;;;;;;;2.50;2.30;;;;;;;;;;4995039;28;20460;-87
2021/12/26 00:12:59;;;;;;;2.20;2.10;;;;;;;;;;4995437;28;20459;-87
2021/12/26 00:15:27;;;;;;;2.67;2.37;;;;;;;;;;4996762;28;20443;-88
2021/12/26 00:17:57;;;;;;;2.87;2.47;;;;;;;;;;5014361;28;20474;-88
2021/12/26 00:20:26;;;;;;;2.53;2.33;;;;;;;;;;5014271;28;20522;-89
2021/12/26 00:22:55;;;;;;;2.00;1.90;;;;;;;;;;5014476;28;20486;-87
2021/12/26 00:25:26;;;;;;;2.60;2.40;;;;;;;;;;5014327;28;20545;-88
2021/12/26 00:27:54;;;;;;;2.47;2.27;;;;;;;;;;5014795;28;20523;-87
2021/12/26 00:30:23;;;;;;;4.60;2.67;;;;;;;;;;5014491;28;20450;-87
2021/12/26 00:32:51;;;;;;;2.43;2.27;;;;;;;;;;5014784;28;20493;-88
2021/12/26 00:35:22;;;;;;;2.97;2.70;;;;;;;;;;5014589;28;20486;-88
2021/12/26 00:37:51;;;;;;;4.60;2.67;;;;;;;;;;5014501;28;20493;-88
2021/12/26 00:40:21;;;;;;;1.90;1.80;;;;;;;;;;5014576;28;20556;-88
2021/12/26 00:42:49;;;;;;;2.20;2.10;;;;;;;;;;5014548;28;20557;-88
2021/12/26 00:45:18;;;;;;;2.17;2.07;;;;;;;;;;5014437;28;20501;-89
2021/12/26 00:47:47;;;;;;;2.93;2.63;;;;;;;;;;5014788;28;20445;-89
2021/12/26 00:50:17;;;;;;;2.23;2.03;;;;;;;;;;5014309;28;20488;-88
2021/12/26 00:52:47;;;;;;;2.23;2.07;;;;;;;;;;5014821;28;20455;-88
2021/12/26 00:55:17;;;;;;;2.30;2.10;;;;;;;;;;5016103;28;20477;-88
2021/12/26 00:57:46;;;;;;;2.30;2.13;;;;;;;;;;5018011;28;20528;-88
2021/12/26 01:00:16;;;;;;;2.20;2.03;;;;;;;;;;5017974;28;20482;-88
2021/12/26 01:02:45;;;;;;;1.80;1.70;;;;;;;;;;5017784;28;20478;-88
2021/12/26 01:05:18;;;;;;;2.60;2.50;;;;;;;;;;5017763;28;20445;-88
2021/12/26 01:07:56;;;;;;;3.27;2.67;;;;;;;;;;5017715;28;20442;-88
2021/12/26 01:10:26;;;;;;;2.43;2.20;;;;;;;;;;5017749;28;20470;-88
2021/12/26 01:12:55;;;;;;;1.80;1.63;;;;;;;;;;5018199;28;20455;-89
2021/12/26 01:15:24;;;;;;;2.00;1.90;;;;;;;;;;5017466;28;20553;-87
2021/12/26 01:17:56;;;;;;;2.23;2.13;;;;;;;;;;5017413;28;20494;-88
2021/12/26 01:20:39;;;;;;;3.37;2.33;;;;;;;;;;5017320;28;20513;-88
2021/12/26 01:23:09;;;;;;;2.43;2.27;;;;;;;;;;5017211;28;20453;-88
2021/12/26 01:25:37;;;;;;;2.53;2.20;;;;;;;;;;5017608;28;20482;-88
2021/12/26 01:28:06;;;;;;;1.83;1.73;;;;;;;;;;5017768;28;20465;-88
2021/12/26 01:30:38;;;;;;;2.20;2.10;;;;;;;;;;5017646;28;20481;-88
2021/12/26 01:33:07;;;;;;;2.73;2.53;;;;;;;;;;5017787;28;20477;-88
2021/12/26 01:35:36;;;;;;;2.47;2.33;;;;;;;;;;5018106;28;20485;-87
2021/12/26 01:38:06;;;;;;;1.90;1.80;;;;;;;;;;5017406;28;20454;-88
2021/12/26 01:40:39;;;;;;;3.03;2.13;;;;;;;;;;5017196;28;20493;-88
2021/12/26 01:43:07;;;;;;;2.73;2.23;;;;;;;;;;5017290;28;20457;-89
2021/12/26 01:45:36;;;;;;;1.57;1.47;;;;;;;;;;5017360;28;20462;-87
2021/12/26 01:48:09;;;;;;;3.23;2.47;;;;;;;;;;5017840;28;20550;-88
2021/12/26 01:50:38;;;;;;;2.37;2.27;;;;;;;;;;5004882;28;20474;-88
2021/12/26 01:53:07;;;;;;;3.60;2.87;;;;;;;;;;4997866;28;20467;-88
2021/12/26 01:55:41;;;;;;;2.07;1.90;;;;;;;;;;4997695;28;20517;-88
2021/12/26 01:58:10;;;;;;;2.63;2.43;;;;;;;;;;4998597;28;20498;-88
2021/12/26 02:00:40;;;;;;;3.37;2.10;;;;;;;;;;5017100;28;20494;-88
2021/12/26 02:03:09;;;;;;;2.10;1.90;;;;;;;;;;5017064;28;20549;-88
2021/12/26 02:05:37;;;;;;;1.90;1.80;;;;;;;;;;5016749;28;20500;-89
2021/12/26 02:08:07;;;;;;;2.20;2.10;;;;;;;;;;5016561;28;20458;-88
2021/12/26 02:10:36;;;;;;;2.47;2.30;;;;;;;;;;5016590;28;20450;-88
2021/12/26 02:13:05;;;;;;;1.90;1.80;;;;;;;;;;5016653;28;20509;-88
2021/12/26 02:15:34;;;;;;;1.97;1.87;;;;;;;;;;5016654;28;20468;-88
2021/12/26 02:18:03;;;;;;;1.33;1.33;;;;;;;;;;5016754;28;20481;-88
2021/12/26 02:20:39;;;;;;;2.23;2.13;;;;;;;;;;5016711;28;20486;-88
2021/12/26 02:23:13;;;;;;;2.90;2.70;;;;;;;;;;5016584;28;20541;-88
2021/12/26 02:28:30;;;;;;;2.17;1.93;;;;;;;;;;4980714;28;20510;-88
2021/12/26 02:30:58;;;;;;;2.40;2.20;;;;;;;;;;4996726;28;20440;-88
2021/12/26 02:33:27;;;;;;;2.83;2.53;;;;;;;;;;4997173;28;20444;-88
2021/12/26 02:35:57;;;;;;;2.43;2.23;;;;;;;;;;4996995;28;20459;-89
2021/12/26 02:38:26;;;;;;;2.60;1.70;;;;;;;;;;4997122;28;20487;-88
2021/12/26 02:40:55;;;;;;;1.80;1.67;;;;;;;;;;4996305;28;20546;-88
2021/12/26 02:43:24;;;;;;;2.07;1.90;;;;;;;;;;4996679;28;20533;-88
2021/12/26 02:45:53;;;;;;;2.37;2.17;;;;;;;;;;4996774;28;20455;-88
2021/12/26 02:48:21;;;;;;;2.77;2.57;;;;;;;;;;4997233;28;20455;-87
2021/12/26 02:50:56;;;;;;;1.83;1.73;;;;;;;;;;4996676;28;20505;-88
2021/12/26 02:53:26;;;;;;;1.87;1.77;;;;;;;;;;4996764;28;20427;-88
2021/12/26 02:55:56;;;;;;;2.10;2.00;;;;;;;;;;4996587;28;20447;-88
2021/12/26 02:58:25;;;;;;;2.30;2.10;;;;;;;;;;5002551;28;20526;-88
2021/12/26 03:00:55;;;;;;;2.40;2.20;;;;;;;;;;5015494;28;20490;-88
2021/12/26 03:03:27;;;;;;;2.80;2.57;;;;;;;;;;5015982;28;20573;-88
2021/12/26 03:05:57;;;;;;;2.43;2.23;;;;;;;;;;5015956;28;20458;-87
2021/12/26 03:08:27;;;;;;;1.60;1.50;;;;;;;;;;5016021;28;20549;-88
2021/12/26 03:10:55;;;;;;;2.40;2.30;;;;;;;;;;5015786;28;20501;-87
2021/12/26 03:13:25;;;;;;;4.30;2.33;;;;;;;;;;5015517;28;20463;-88
2021/12/26 03:15:54;;;;;;;2.50;2.30;;;;;;;;;;5015582;28;20466;-88
2021/12/26 03:18:22;;;;;;;2.17;2.07;;;;;;;;;;5016263;28;20509;-88
2021/12/26 03:20:51;;;;;;;1.93;1.67;;;;;;;;;;5015759;28;20506;-89
2021/12/26 03:23:21;;;;;;;2.47;2.27;;;;;;;;;;5015959;28;20470;-88
2021/12/26 03:25:57;;;;;;;2.87;2.67;;;;;;;;;;5016107;28;20502;-89
2021/12/26 03:28:26;;;;;;;3.87;2.23;;;;;;;;;;5015773;28;20465;-88
2021/12/26 03:30:55;;;;;;;2.77;2.10;;;;;;;;;;5015657;28;20489;-87
2021/12/26 03:33:24;;;;;;;2.13;2.03;;;;;;;;;;5015533;28;20466;-87
2021/12/26 03:35:55;;;;;;;2.47;2.27;;;;;;;;;;5014971;28;20458;-87
2021/12/26 03:38:24;;;;;;;2.00;1.90;;;;;;;;;;5015172;28;20454;-87
2021/12/26 03:40:55;;;;;;;2.53;2.23;;;;;;;;;;5015263;28;20544;-87
2021/12/26 03:43:24;;;;;;;3.40;2.80;;;;;;;;;;5015595;28;20481;-86
2021/12/26 03:45:54;;;;;;;2.67;2.47;;;;;;;;;;5015534;28;20512;-87
2021/12/26 03:48:24;;;;;;;5.63;3.37;;;;;;;;;;5015820;28;20426;-87
2021/12/26 03:50:54;;;;;;;3.07;2.87;;;;;;;;;;5015616;28;20451;-88
2021/12/26 03:53:22;;;;;;;2.67;2.47;;;;;;;;;;5015755;28;20439;-88
2021/12/26 03:55:52;;;;;;;3.87;2.07;;;;;;;;;;5015630;28;20450;-87
2021/12/26 03:58:22;;;;;;;3.43;2.93;;;;;;;;;;5015004;28;20508;-87
2021/12/26 04:00:51;;;;;;;2.07;1.97;;;;;;;;;;5015289;28;20585;-88
2021/12/26 04:03:19;;;;;;;3.43;2.57;;;;;;;;;;5015032;28;20494;-88
2021/12/26 04:05:48;;;;;;;2.97;2.67;;;;;;;;;;5015401;28;20521;-88
2021/12/26 04:08:16;;;;;;;2.70;2.50;;;;;;;;;;5014800;28;20493;-87
2021/12/26 04:10:45;;;;;;;3.17;2.70;;;;;;;;;;5015070;28;20438;-88
2021/12/26 04:13:14;;;;;;;2.70;2.23;;;;;;;;;;5015087;28;20454;-88
2021/12/26 04:15:44;;;;;;;2.57;2.40;;;;;;;;;;5015021;28;20482;-88
2021/12/26 04:18:12;;;;;;;2.13;1.90;;;;;;;;;;5014763;28;20489;-88
2021/12/26 04:20:41;;;;;;;2.00;1.90;;;;;;;;;;5014754;28;20478;-88
2021/12/26 04:23:09;;;;;;;2.07;1.97;;;;;;;;;;5014721;28;20524;-88
2021/12/26 04:25:38;;;;;;;2.13;2.03;;;;;;;;;;5014795;28;20486;-88
2021/12/26 04:28:06;;;;;;;2.57;2.37;;;;;;;;;;5014993;28;20455;-88
2021/12/26 04:30:35;;;;;;;1.63;1.57;;;;;;;;;;5016785;28;20493;-87
2021/12/26 04:33:05;;;;;;;3.97;2.30;;;;;;;;;;5018378;28;20438;-89
2021/12/26 04:35:34;;;;;;;2.70;2.50;;;;;;;;;;5018794;28;20542;-89
2021/12/26 04:38:02;;;;;;;1.90;1.80;;;;;;;;;;5018414;28;20485;-88
2021/12/26 04:40:31;;;;;;;2.83;2.63;;;;;;;;;;5018531;28;20458;-89
2021/12/26 04:43:00;;;;;;;2.93;2.57;;;;;;;;;;5018544;28;20545;-88
2021/12/26 04:45:28;;;;;;;4.17;2.77;;;;;;;;;;5018029;28;20454;-88
2021/12/26 04:48:00;;;;;;;2.27;2.07;;;;;;;;;;5018252;28;20630;-88
2021/12/26 04:50:31;;;;;;;2.37;2.17;;;;;;;;;;5018409;28;20497;-88
2021/12/26 04:52:59;;;;;;;3.90;2.20;;;;;;;;;;5018316;28;20442;-89
2021/12/26 04:55:29;;;;;;;3.53;2.43;;;;;;;;;;5018298;28;20462;-88
2021/12/26 04:57:58;;;;;;;2.50;2.30;;;;;;;;;;5018241;28;20497;-88
2021/12/26 05:00:27;;;;;;;2.70;2.50;;;;;;;;;;5018163;28;20446;-88
2021/12/26 05:02:56;;;;;;;2.53;2.33;;;;;;;;;;5017522;28;20520;-88
2021/12/26 05:05:26;;;;;;;3.07;2.63;;;;;;;;;;5017646;28;20545;-89
2021/12/26 05:07:56;;;;;;;2.57;2.37;;;;;;;;;;5017412;28;20520;-88
2021/12/26 05:10:27;;;;;;;4.40;2.80;;;;;;;;;;5017616;28;20474;-88
2021/12/26 05:12:56;;;;;;;3.37;2.30;;;;;;;;;;5017964;28;20469;-88
2021/12/26 05:15:24;;;;;;;3.00;2.80;;;;;;;;;;5017417;28;20450;-87
2021/12/26 05:17:53;;;;;;;2.57;2.37;;;;;;;;;;5017127;28;20517;-87
2021/12/26 05:20:22;;;;;;;3.30;2.83;;;;;;;;;;5017597;28;20477;-87
2021/12/26 05:22:51;;;;;;;2.00;1.80;;;;;;;;;;5017168;28;20502;-87
2021/12/26 05:25:22;;;;;;;2.67;2.47;;;;;;;;;;5017789;28;20454;-88
2021/12/26 05:27:51;;;;;;;2.40;2.20;;;;;;;;;;5017821;28;20462;-87
2021/12/26 05:30:21;;;;;;;4.40;2.40;;;;;;;;;;5016789;28;20496;-86
2021/12/26 05:32:52;;;;;;;2.77;2.57;;;;;;;;;;5017111;28;20525;-88
2021/12/26 05:35:21;;;;;;;2.83;2.60;;;;;;;;;;5016979;28;20478;-88
2021/12/26 05:37:49;;;;;;;2.93;2.73;;;;;;;;;;5017454;28;20486;-88
2021/12/26 05:40:18;;;;;;;2.67;2.47;;;;;;;;;;5017136;28;20512;-88
2021/12/26 05:42:48;;;;;;;2.17;2.07;;;;;;;;;;5015799;28;20482;-88
2021/12/26 05:45:17;;;;;;;2.10;2.00;;;;;;;;;;5017225;28;20467;-88
2021/12/26 05:47:46;;;;;;;2.77;2.53;;;;;;;;;;5016802;28;20442;-87
2021/12/26 05:50:16;;;;;;;3.43;2.17;;;;;;;;;;5016793;28;20500;-88
2021/12/26 05:52:45;;;;;;;1.90;1.80;;;;;;;;;;5016713;28;20505;-88
2021/12/26 05:55:13;;;;;;;2.90;2.70;;;;;;;;;;5016857;28;20482;-87
2021/12/26 05:57:42;;;;;;;1.87;1.77;;;;;;;;;;5016469;28;20469;-87
2021/12/26 06:00:18;;;;;;;2.63;2.37;;;;;;;;;;4997182;28;20460;-88
2021/12/26 06:02:46;;;;;;;2.23;2.13;;;;;;;;;;4996985;28;20521;-88
2021/12/26 06:05:15;;;;;;;2.60;2.40;;;;;;;;;;4997267;28;20440;-88
2021/12/26 06:07:43;;;;;;;5.47;2.20;;;;;;;;;;4996926;28;20483;-88
2021/12/26 06:10:12;;;;;;;2.90;2.70;;;;;;;;;;4996841;28;20518;-88
2021/12/26 06:12:40;;;;;;;2.63;2.50;;;;;;;;;;4997074;28;20490;-88
2021/12/26 06:15:09;;;;;;;2.00;1.90;;;;;;;;;;4996674;28;20471;-88
2021/12/26 06:17:39;;;;;;;2.63;2.20;;;;;;;;;;4996699;28;20499;-88
2021/12/26 06:20:13;;;;;;;2.90;2.70;;;;;;;;;;4996540;28;20496;-88
2021/12/26 06:22:42;;;;;;;4.00;2.93;;;;;;;;;;4996422;28;20487;-88
2021/12/26 06:25:11;;;;;;;2.90;2.70;;;;;;;;;;4996378;28;20460;-89
2021/12/26 06:27:39;;;;;;;2.93;2.67;;;;;;;;;;4996505;28;20510;-88
2021/12/26 06:30:09;;;;;;;4.13;2.63;;;;;;;;;;4996504;28;20507;-88
2021/12/26 06:32:39;;;;;;;2.53;2.33;;;;;;;;;;4996403;28;20466;-88
2021/12/26 06:35:08;;;;;;;2.43;2.23;;;;;;;;;;4995964;28;20459;-89
2021/12/26 06:37:37;;;;;;;3.00;2.70;;;;;;;;;;4996388;28;20466;-89
2021/12/26 06:40:06;;;;;;;3.97;3.00;;;;;;;;;;4995927;28;20459;-88
2021/12/26 06:42:40;;;;;;;2.23;2.07;;;;;;;;;;4996203;28;20490;-88
2021/12/26 06:45:09;;;;;;;2.53;1.80;;;;;;;;;;4996564;28;20494;-89
2021/12/26 06:47:39;;;;;;;3.30;2.60;;;;;;;;;;4996059;28;20490;-89
2021/12/26 06:50:10;;;;;;;2.97;2.77;;;;;;;;;;4996132;28;20502;-88
2021/12/26 06:52:39;;;;;;;2.97;2.43;;;;;;;;;;4995897;28;20535;-89
2021/12/26 06:55:08;;;;;;;2.87;2.67;;;;;;;;;;4996046;28;20490;-89
2021/12/26 06:57:36;;;;;;;2.50;2.30;;;;;;;;;;4996258;28;20483;-89
2021/12/26 07:00:06;;;;;;;4.60;2.90;;;;;;;;;;4976524;28;20460;-89
2021/12/26 07:02:34;;;;;;;2.60;2.40;;;;;;;;;;4976605;28;20510;-89
2021/12/26 07:05:05;;;;;;;2.43;2.33;;;;;;;;;;4976409;28;20436;-89
2021/12/26 07:07:33;;;;;;;3.13;2.93;;;;;;;;;;4976754;28;20524;-89
2021/12/26 07:10:02;;;;;;;3.30;3.00;;;;;;;;;;4976105;28;20556;-88
2021/12/26 07:12:30;;;;;;;3.27;2.83;;;;;;;;;;4976567;28;20511;-89
2021/12/26 07:14:59;;;;;;;2.83;2.63;;;;;;;;;;4975821;28;20468;-88
2021/12/26 07:17:27;;;;;;;3.33;3.03;;;;;;;;;;4995504;28;20513;-89
2021/12/26 07:19:56;;;;;;;2.40;2.20;;;;;;;;;;5015947;28;20442;-89
2021/12/26 07:22:25;;;;;;;2.73;2.53;;;;;;;;;;5015283;28;20537;-88
2021/12/26 07:24:54;;;;;;;3.27;2.70;;;;;;;;;;5015430;28;20442;-88
2021/12/26 07:27:23;;;;;;;3.83;2.90;;;;;;;;;;5015446;28;20526;-89
2021/12/26 07:29:52;;;;;;;7.30;3.20;;;;;;;;;;5015363;28;20482;-88
2021/12/26 07:32:20;;;;;;;3.30;3.07;;;;;;;;;;5014814;28;20454;-89
2021/12/26 07:34:49;;;;;;;1.43;1.43;;;;;;;;;;5015474;28;20435;-89
2021/12/26 07:37:17;;;;;;;3.07;2.60;;;;;;;;;;5014749;28;20482;-89
2021/12/26 07:39:47;;;;;;;2.77;2.57;;;;;;;;;;5014513;28;20455;-89
2021/12/26 07:42:16;;;;;;;2.83;2.63;;;;;;;;;;5014486;28;20466;-89
2021/12/26 07:44:44;;;;;;;2.63;2.33;;;;;;;;;;5014873;28;20473;-89
2021/12/26 07:47:13;;;;;;;2.70;2.50;;;;;;;;;;5014947;28;20481;-88
2021/12/26 07:49:42;;;;;;;3.37;2.63;;;;;;;;;;5014851;28;20513;-89
2021/12/26 07:52:15;;;;;;;2.30;2.20;;;;;;;;;;5014567;28;20451;-89
2021/12/26 07:54:44;;;;;;;2.50;2.30;;;;;;;;;;5014888;28;20442;-89
2021/12/26 07:57:15;;;;;;;3.90;3.60;;;;;;;;;;5014565;28;20521;-90
2021/12/26 07:59:43;;;;;;;3.10;2.80;;;;;;;;;;4998180;28;20495;-89
2021/12/26 08:02:14;;;;;;;3.50;3.20;;;;;;;;;;4995478;28;20459;-89
2021/12/26 08:04:44;;;;;;;3.53;3.03;;;;;;;;;;4994440;28;20542;-89
2021/12/26 08:07:13;;;;;;;2.83;2.63;;;;;;;;;;4995253;28;20504;-88
2021/12/26 08:09:41;;;;;;;3.97;3.57;;;;;;;;;;4994764;28;20460;-89
2021/12/26 08:12:10;;;;;;;2.47;2.27;;;;;;;;;;4994532;28;20435;-89
2021/12/26 08:14:40;;;;;;;3.13;2.80;;;;;;;;;;4994834;28;20466;-89
2021/12/26 08:17:08;;;;;;;2.97;2.77;;;;;;;;;;5001976;28;20509;-89
2021/12/26 08:19:37;;;;;;;3.73;3.07;;;;;;;;;;5014462;28;20439;-89
2021/12/26 08:22:06;;;;;;;2.53;2.37;;;;;;;;;;5014484;28;20492;-89
2021/12/26 08:24:34;;;;;;;3.23;2.93;;;;;;;;;;5014511;28;20494;-89
2021/12/26 08:27:02;;;;;;;4.03;2.97;;;;;;;;;;5014568;28;20501;-89
2021/12/26 08:29:31;;;;;;;4.27;3.87;;;;;;;;;;5014325;28;20507;-90
2021/12/26 08:32:01;;;;;;;3.03;2.83;;;;;;;;;;5014211;28;20562;-89
2021/12/26 08:34:30;;;;;;;3.80;3.60;;;;;;;;;;5014676;28;20462;-89
2021/12/26 08:37:02;;;;;;;4.27;3.07;;;;;;;;;;5014397;28;20459;-89
2021/12/26 08:39:31;;;;;;;2.63;2.43;;;;;;;;;;5014487;28;20466;-89
2021/12/26 08:42:00;;;;;;;3.90;3.60;;;;;;;;;;5014307;28;20439;-89
2021/12/26 08:44:32;;;;;;;3.50;3.20;;;;;;;;;;5014184;28;20486;-89
2021/12/26 08:47:02;;;;;;;3.60;2.97;;;;;;;;;;5014546;28;20485;-87
2021/12/26 08:49:30;;;;;;;2.97;2.67;;;;;;;;;;5014230;28;20549;-89
2021/12/26 08:51:59;;;;;;;3.90;3.60;;;;;;;;;;5014530;28;20471;-89
2021/12/26 08:54:29;;;;;;;2.60;2.40;;;;;;;;;;5014401;28;20462;-89
2021/12/26 08:56:59;;;;;;;3.87;3.57;;;;;;;;;;5014541;28;20505;-89
2021/12/26 08:59:30;;;;;;;4.37;4.07;;;;;;;;;;4999757;28;20455;-89
2021/12/26 09:01:59;;;;;;;3.70;2.77;;;;;;;;;;4995268;28;20458;-89
2021/12/26 09:04:29;;;;;;;4.97;2.97;;;;;;;;;;4994410;28;20558;-89
2021/12/26 09:06:57;;;;;;;3.03;2.83;;;;;;;;;;4994899;28;20475;-89
2021/12/26 09:09:28;;;;;;;10.20;2.93;;;;;;;;;;4994632;28;20478;-88
2021/12/26 09:11:57;;;;;;;3.80;3.50;;;;;;;;;;4994886;28;20442;-88
2021/12/26 09:14:28;;;;;;;3.10;2.90;;;;;;;;;;4994694;28;20451;-88
2021/12/26 09:16:57;;;;;;;3.07;2.70;;;;;;;;;;4997608;28;20514;-88
2021/12/26 09:19:27;;;;;;;3.53;3.23;;;;;;;;;;4997885;28;20439;-89
2021/12/26 09:21:57;;;;;;;2.70;2.50;;;;;;;;;;4998063;28;20467;-88
2021/12/26 09:24:26;;;;;;;3.00;2.80;;;;;;;;;;4997313;28;20490;-89
2021/12/26 09:26:54;;;;;;;32.47;7.60;;;;;;;;;;4997936;28;20225;-88
2021/12/26 09:29:23;;;;;;;4.17;3.27;;;;;;;;;;4997837;28;20207;-88
2021/12/26 09:31:53;;;;;;;3.40;3.10;;;;;;;;;;4997396;28;20455;-88
2021/12/26 09:34:22;;;;;;;2.57;2.37;;;;;;;;;;4997151;28;20444;-88
2021/12/26 09:36:50;;;;;;;2.87;2.67;;;;;;;;;;4997515;28;20478;-89
2021/12/26 09:39:21;;;;;;;1.97;1.83;;;;;;;;;;4997382;28;20455;-89
2021/12/26 09:41:50;;;;;;;2.27;2.17;;;;;;;;;;4997924;28;20448;-88
2021/12/26 09:44:20;;;;;;;3.80;3.13;;;;;;;;;;4997178;28;20487;-88
2021/12/26 09:46:49;;;;;;;3.43;3.00;;;;;;;;;;4997642;28;20239;-89
2021/12/26 09:49:17;;;;;;;3.47;3.17;;;;;;;;;;4997439;28;20443;-88
2021/12/26 09:51:46;;;;;;;2.70;2.50;;;;;;;;;;4997903;28;20216;-88
2021/12/26 09:54:15;;;;;;;2.13;2.03;;;;;;;;;;4996931;28;20459;-88
2021/12/26 09:56:45;;;;;;;6.97;4.13;;;;;;;;;;4998069;28;20509;-88
2021/12/26 09:59:16;;;;;;;4.50;2.97;;;;;;;;;;4997445;28;20456;-88
2021/12/26 10:01:45;;;;;;;2.90;2.70;;;;;;;;;;4997541;28;20196;-88
2021/12/26 10:04:32;;;;;;;2.97;2.77;;;;;;;;;;4997201;28;20239;-88
2021/12/26 10:07:02;;;;;;;2.67;2.47;;;;;;;;;;4997789;28;20443;-88
2021/12/26 10:09:37;;;;;;;3.83;2.97;;;;;;;;;;4997380;28;20198;-89
2021/12/26 10:12:08;;;;;;;3.47;2.77;;;;;;;;;;4997697;28;20447;-89
2021/12/26 10:14:38;;;;;;;4.03;3.27;;;;;;;;;;4997548;28;20451;-89
2021/12/26 10:17:09;;;;;;;2.37;2.20;;;;;;;;;;4997046;28;20483;-89
2021/12/26 10:19:38;;;;;;;2.53;2.43;;;;;;;;;;4996931;28;20455;-88
2021/12/26 10:22:07;;;;;;;4.97;2.93;;;;;;;;;;4996669;28;20463;-89
2021/12/26 10:24:37;;;;;;;3.47;3.27;;;;;;;;;;4996576;28;20228;-88
2021/12/26 10:27:08;;;;;;;3.83;3.43;;;;;;;;;;4996239;28;20494;-88
2021/12/26 10:29:39;;;;;;;1.53;1.53;;;;;;;;;;4996796;28;20212;-86
2021/12/26 10:32:10;;;;;;;2.47;2.27;;;;;;;;;;4996767;28;20204;-88
2021/12/26 10:34:40;;;;;;;2.63;2.43;;;;;;;;;;4996845;28;20220;-88
2021/12/26 10:37:12;;;;;;;4.40;3.07;;;;;;;;;;4996254;28;20223;-87
2021/12/26 10:39:43;;;;;;;3.10;2.80;;;;;;;;;;4996523;28;20235;-87
2021/12/26 10:42:16;;;;;;;2.30;2.20;;;;;;;;;;4996216;28;20196;-87
2021/12/26 10:44:48;;;;;;;2.17;2.07;;;;;;;;;;4996672;28;20278;-88
2021/12/26 10:47:18;;;;;;;4.03;3.63;;;;;;;;;;4996024;28;20212;-87
2021/12/26 10:49:49;;;;;;;2.07;1.93;;;;;;;;;;4996100;28;20204;-87
2021/12/26 10:52:21;;;;;;;2.60;2.40;;;;;;;;;;4996449;28;20204;-87
2021/12/26 10:54:50;;;;;;;3.33;2.10;;;;;;;;;;4995618;28;20204;-87
2021/12/26 10:57:20;;;;;;;3.67;3.37;;;;;;;;;;4996134;28;20510;-87
2021/12/26 11:00:01;;;;;;;2.73;2.53;;;;;;;;;;4978351;28;20236;-87
2021/12/26 11:02:31;;;;;;;2.53;2.30;;;;;;;;;;4976456;28;20436;-87
2021/12/26 11:05:03;;;;;;;3.47;3.17;;;;;;;;;;4976597;28;20299;-87
2021/12/26 11:07:45;;;;;;;2.77;2.57;;;;;;;;;;4976745;28;20186;-87
2021/12/26 11:10:15;;;;;;;2.13;1.93;;;;;;;;;;4976665;28;20232;-87
2021/12/26 11:12:45;;;;;;;3.10;2.30;;;;;;;;;;4976938;28;20264;-87
2021/12/26 11:15:16;;;;;;;3.23;2.93;;;;;;;;;;4976411;28;20206;-87
2021/12/26 11:17:45;;;;;;;3.30;3.00;;;;;;;;;;4999865;28;20270;-87
2021/12/26 11:20:22;;;;;;;2.87;2.63;;;;;;;;;;5015874;28;20262;-87
2021/12/26 11:22:50;;;;;;;2.53;2.33;;;;;;;;;;5016065;28;20254;-87
2021/12/26 11:25:19;;;;;;;3.27;3.00;;;;;;;;;;5015708;28;20254;-87
2021/12/26 11:27:47;;;;;;;3.00;2.70;;;;;;;;;;5015190;28;20246;-87
2021/12/26 11:30:17;;;;;;;2.60;2.40;;;;;;;;;;5016146;28;20239;-87
2021/12/26 11:32:46;;;;;;;3.33;3.13;;;;;;;;;;5015124;28;20211;-88
2021/12/26 11:35:17;;;;;;;5.70;3.47;;;;;;;;;;5015477;28;20231;-87
2021/12/26 11:37:46;;;;;;;4.07;2.93;;;;;;;;;;5015236;28;20208;-88
2021/12/26 11:40:16;;;;;;;3.13;2.83;;;;;;;;;;5014916;28;20211;-88
2021/12/26 11:43:05;;;;;;;3.43;3.20;;;;;;;;;;5015747;28;20207;-88
2021/12/26 11:45:38;;;;;;;2.83;2.50;;;;;;;;;;4998465;28;20235;-88
2021/12/26 11:48:27;;;;;;;2.53;2.37;;;;;;;;;;5015120;28;20214;-88
2021/12/26 11:51:03;;;;;;;3.00;2.70;;;;;;;;;;5015664;28;20264;-88
2021/12/26 11:53:43;;;;;;;4.23;3.83;;;;;;;;;;5015207;28;20298;-88
2021/12/26 11:56:18;;;;;;;3.33;2.70;;;;;;;;;;5015024;28;20280;-89
2021/12/26 11:58:50;;;;;;;4.53;3.50;;;;;;;;;;5005861;28;20231;-88
2021/12/26 12:01:22;;;;;;;3.50;3.20;;;;;;;;;;4996016;28;20225;-88
2021/12/26 12:04:11;;;;;;;4.53;4.13;;;;;;;;;;4995135;28;20234;-88
2021/12/26 12:06:40;;;;;;;3.93;3.53;;;;;;;;;;4995319;28;20225;-89
2021/12/26 12:09:26;;;;;;;3.30;3.10;;;;;;;;;;4995898;28;20213;-89
2021/12/26 12:11:59;;;;;;;4.10;3.70;;;;;;;;;;4995015;28;20257;-88
2021/12/26 12:14:46;;;;;;;4.40;3.90;;;;;;;;;;4995110;28;20231;-88
2021/12/26 12:17:18;;;;;;;3.27;3.00;;;;;;;;;;5002481;28;20251;-88
2021/12/26 12:20:13;;;;;;;4.00;2.93;;;;;;;;;;5015090;28;20259;-89
2021/12/26 12:22:56;;;;;;;5.37;3.50;;;;;;;;;;4991773;28;20204;-89
2021/12/26 12:25:41;;;;;;;3.50;3.20;;;;;;;;;;5014397;28;20228;-89
2021/12/26 12:28:10;;;;;;;3.40;3.10;;;;;;;;;;5014885;28;20231;-89
2021/12/26 12:30:39;;;;;;;4.70;3.90;;;;;;;;;;5015111;28;20261;-89
2021/12/26 12:33:18;;;;;;;1.70;1.60;;;;;;;;;;5014724;28;20212;-89
2021/12/26 12:35:50;;;;;;;3.47;3.10;;;;;;;;;;5014889;28;20204;-89
2021/12/26 12:38:34;;;;;;;3.63;3.33;;;;;;;;;;5014865;28;20240;-89
2021/12/26 12:41:41;;;;;;;3.43;3.13;;;;;;;;;;5015020;28;20263;-89
2021/12/26 12:44:25;;;;;;;5.80;2.23;;;;;;;;;;5014891;28;20205;-89
2021/12/26 12:46:55;;;;;;;5.30;3.73;;;;;;;;;;5014495;28;20277;-88
2021/12/26 12:49:38;;;;;;;3.13;2.43;;;;;;;;;;5014673;28;20209;-89
2021/12/26 12:52:09;;;;;;;4.47;3.70;;;;;;;;;;5017393;28;20237;-89
2021/12/26 12:54:49;;;;;;;3.60;3.30;;;;;;;;;;5018585;28;20287;-88
2021/12/26 12:57:34;;;;;;;4.23;3.90;;;;;;;;;;5018427;28;20214;-88
2021/12/26 13:00:04;;;;;;;3.63;3.43;;;;;;;;;;5018377;28;20219;-88
2021/12/26 13:02:47;;;;;;;3.97;3.67;;;;;;;;;;5018630;28;20224;-88
2021/12/26 13:05:23;;;;;;;4.27;3.13;;;;;;;;;;5018587;28;20208;-88
2021/12/26 13:07:59;;;;;;;3.20;2.93;;;;;;;;;;5018525;28;20266;-88
2021/12/26 13:10:30;;;;;;;3.77;3.43;;;;;;;;;;5017949;28;20213;-88
2021/12/26 13:13:04;;;;;;;4.23;3.93;;;;;;;;;;5017994;28;20269;-88
2021/12/26 13:15:33;;;;;;;4.37;3.93;;;;;;;;;;5018127;28;20230;-87
2021/12/26 13:18:06;;;;;;;4.67;3.90;;;;;;;;;;5018083;28;20307;-88
2021/12/26 13:20:36;;;;;;;5.33;3.80;;;;;;;;;;5018531;28;20200;-87
2021/12/26 13:23:06;;;;;;;4.73;4.00;;;;;;;;;;5017853;28;20204;-88
2021/12/26 13:25:36;;;;;;;5.53;5.03;;;;;;;;;;5017968;28;20219;-88
2021/12/26 13:28:05;;;;;;;5.10;4.60;;;;;;;;;;5018150;28;20219;-88
2021/12/26 13:30:39;;;;;;;6.70;4.73;;;;;;;;;;5017515;28;20215;-89
2021/12/26 13:33:15;;;;;;;4.23;3.83;;;;;;;;;;5017758;28;20203;-89
2021/12/26 13:35:44;;;;;;;3.73;3.43;;;;;;;;;;5017827;28;20204;-89
2021/12/26 13:38:14;;;;;;;3.27;2.87;;;;;;;;;;5017352;28;20299;-89
2021/12/26 13:40:44;;;;;;;4.83;4.03;;;;;;;;;;5017482;28;20292;-88
2021/12/26 13:43:15;;;;;;;2.63;2.43;;;;;;;;;;5017443;28;20301;-89
2021/12/26 13:45:45;;;;;;;3.93;3.63;;;;;;;;;;5017590;28;20212;-89
2021/12/26 13:48:26;;;;;;;3.93;2.70;;;;;;;;;;5017222;28;20211;-88
2021/12/26 13:51:17;;;;;;;2.87;2.67;;;;;;;;;;5017289;28;20258;-90
2021/12/26 13:53:47;;;;;;;4.33;3.80;;;;;;;;;;5017308;28;20200;-89
2021/12/26 13:56:16;;;;;;;4.57;3.70;;;;;;;;;;5017232;28;20259;-89
2021/12/26 13:58:44;;;;;;;4.33;3.93;;;;;;;;;;5016716;28;20216;-89
2021/12/26 14:01:14;;;;;;;6.83;3.83;;;;;;;;;;5017412;28;20315;-87
2021/12/26 14:03:45;;;;;;;5.77;4.07;;;;;;;;;;5016243;28;20224;-88
2021/12/26 14:06:14;;;;;;;4.83;4.33;;;;;;;;;;5017484;28;20290;-88
2021/12/26 14:08:43;;;;;;;5.50;4.00;;;;;;;;;;5017090;28;20232;-88
2021/12/26 14:11:13;;;;;;;4.97;4.57;;;;;;;;;;5017215;28;20238;-88
2021/12/26 14:13:46;;;;;;;3.40;3.07;;;;;;;;;;5017012;28;20208;-88
2021/12/26 14:16:21;;;;;;;4.03;3.70;;;;;;;;;;5017235;28;20202;-88
2021/12/26 14:18:50;;;;;;;5.23;4.20;;;;;;;;;;5016741;28;20237;-88
2021/12/26 14:21:20;;;;;;;4.60;4.20;;;;;;;;;;5017465;28;20212;-88
2021/12/26 14:23:53;;;;;;;4.50;3.90;;;;;;;;;;5017654;28;20217;-88
2021/12/26 14:26:24;;;;;;;7.60;4.07;;;;;;;;;;5016915;28;20256;-88
2021/12/26 14:28:54;;;;;;;4.00;3.60;;;;;;;;;;5016998;28;20211;-88
2021/12/26 14:31:30;;;;;;;6.00;4.63;;;;;;;;;;5016634;28;20227;-89
2021/12/26 14:34:00;;;;;;;5.77;4.33;;;;;;;;;;5016407;28;20207;-89
2021/12/26 14:36:29;;;;;;;4.10;3.70;;;;;;;;;;5016405;28;20207;-89
2021/12/26 14:39:00;;;;;;;3.43;3.07;;;;;;;;;;5016616;28;20208;-89
2021/12/26 14:41:36;;;;;;;6.77;4.10;;;;;;;;;;5015877;28;20205;-88
2021/12/26 14:44:11;;;;;;;4.27;3.63;;;;;;;;;;5016536;28;20192;-88
2021/12/26 14:46:41;;;;;;;5.57;4.77;;;;;;;;;;5016306;28;20228;-89
2021/12/26 14:49:10;;;;;;;2.70;2.53;;;;;;;;;;5016534;28;20209;-89
2021/12/26 14:51:39;;;;;;;3.27;3.07;;;;;;;;;;5016167;28;20208;-88
2021/12/26 14:54:08;;;;;;;3.93;3.47;;;;;;;;;;5015746;28;20211;-88
2021/12/26 14:56:46;;;;;;;4.40;4.00;;;;;;;;;;5015933;28;20216;-88
2021/12/26 14:59:24;;;;;;;5.43;4.60;;;;;;;;;;5003151;28;20254;-88
2021/12/26 15:02:05;;;;;;;25.43;4.27;;;;;;;;;;4996259;28;20299;-88
2021/12/26 15:04:33;;;;;;;6.57;5.03;;;;;;;;;;4996179;28;20224;-88
2021/12/26 15:07:06;;;;;;;5.13;4.30;;;;;;;;;;4996240;28;20276;-88